sensor_id;sensor_type;location;lat;lon;timestamp;pressure;altitude;pressure_sealevel;temperature;humidity
76011;BME280;64701;43.536;1.478;2023-07-16T00:00:22;99812.13;;;20.43;86.79
76011;BME280;64701;43.536;1.478;2023-07-16T00:02:47;99809.44;;;20.43;87.22
76011;BME280;64701;43.536;1.478;2023-07-16T00:05:12;99803.78;;;20.44;86.90
76011;BME280;64701;43.536;1.478;2023-07-16T00:07:38;99802.59;;;20.35;88.31
76011;BME280;64701;43.536;1.478;2023-07-16T00:10:03;99804.03;;;20.26;88.35
76011;BME280;64701;43.536;1.478;2023-07-16T00:12:28;99794.09;;;20.26;87.84
76011;BME280;64701;43.536;1.478;2023-07-16T00:14:53;99792.81;;;20.29;87.64
76011;BME280;64701;43.536;1.478;2023-07-16T00:17:20;99793.47;;;20.36;86.91
76011;BME280;64701;43.536;1.478;2023-07-16T00:19:45;99785.16;;;20.38;85.98
76011;BME280;64701;43.536;1.478;2023-07-16T00:22:11;99785.31;;;20.31;87.73
76011;BME280;64701;43.536;1.478;2023-07-16T00:24:36;99786.13;;;20.31;87.33
76011;BME280;64701;43.536;1.478;2023-07-16T00:27:02;99795.59;;;20.34;86.49
76011;BME280;64701;43.536;1.478;2023-07-16T00:29:28;99799.34;;;20.33;86.38
76011;BME280;64701;43.536;1.478;2023-07-16T00:31:54;99786.13;;;20.31;86.51
76011;BME280;64701;43.536;1.478;2023-07-16T00:34:19;99782.03;;;20.29;86.39
76011;BME280;64701;43.536;1.478;2023-07-16T00:36:44;99778.31;;;20.30;86.50
76011;BME280;64701;43.536;1.478;2023-07-16T00:39:10;99781.09;;;20.35;85.80
76011;BME280;64701;43.536;1.478;2023-07-16T00:41:35;99783.78;;;20.35;85.79
76011;BME280;64701;43.536;1.478;2023-07-16T00:44:01;99781.66;;;20.37;85.63
76011;BME280;64701;43.536;1.478;2023-07-16T00:46:26;99786.75;;;20.38;85.62
76011;BME280;64701;43.536;1.478;2023-07-16T00:48:51;99791.34;;;20.38;85.42
76011;BME280;64701;43.536;1.478;2023-07-16T00:51:17;99787.53;;;20.34;86.66
76011;BME280;64701;43.536;1.478;2023-07-16T00:53:43;99780.41;;;20.28;86.54
76011;BME280;64701;43.536;1.478;2023-07-16T00:56:09;99779.59;;;20.27;86.63
76011;BME280;64701;43.536;1.478;2023-07-16T00:58:35;99777.41;;;20.24;86.82
76011;BME280;64701;43.536;1.478;2023-07-16T01:01:00;99782.81;;;20.24;86.37
76011;BME280;64701;43.536;1.478;2023-07-16T01:03:26;99777.66;;;20.23;86.56
76011;BME280;64701;43.536;1.478;2023-07-16T01:08:21;99780.34;;;20.23;85.93
76011;BME280;64701;43.536;1.478;2023-07-16T01:10:51;99770.81;;;20.15;86.78
76011;BME280;64701;43.536;1.478;2023-07-16T01:13:17;99766.59;;;20.19;86.09
76011;BME280;64701;43.536;1.478;2023-07-16T01:15:42;99770.66;;;20.22;85.82
76011;BME280;64701;43.536;1.478;2023-07-16T01:18:07;99772.78;;;20.20;86.17
76011;BME280;64701;43.536;1.478;2023-07-16T01:20:33;99774.31;;;20.16;86.65
76011;BME280;64701;43.536;1.478;2023-07-16T01:23:08;99772.47;;;20.16;86.50
76011;BME280;64701;43.536;1.478;2023-07-16T01:30:34;99766.72;;;20.08;87.07
76011;BME280;64701;43.536;1.478;2023-07-16T01:33:03;99771.50;;;20.06;87.24
76011;BME280;64701;43.536;1.478;2023-07-16T01:35:29;99771.50;;;20.06;87.31
76011;BME280;64701;43.536;1.478;2023-07-16T01:37:55;99765.88;;;20.07;86.52
76011;BME280;64701;43.536;1.478;2023-07-16T01:40:20;99765.38;;;20.10;86.16
76011;BME280;64701;43.536;1.478;2023-07-16T01:42:45;99763.03;;;20.14;85.62
76011;BME280;64701;43.536;1.478;2023-07-16T01:45:11;99763.03;;;20.14;85.85
76011;BME280;64701;43.536;1.478;2023-07-16T01:50:08;99760.09;;;19.98;87.67
76011;BME280;64701;43.536;1.478;2023-07-16T01:52:33;99762.56;;;20.00;86.76
76011;BME280;64701;43.536;1.478;2023-07-16T01:54:58;99765.50;;;19.98;87.02
76011;BME280;64701;43.536;1.478;2023-07-16T01:57:24;99761.41;;;19.96;86.72
76011;BME280;64701;43.536;1.478;2023-07-16T01:59:49;99753.78;;;19.88;87.11
76011;BME280;64701;43.536;1.478;2023-07-16T02:02:14;99747.66;;;19.92;86.08
76011;BME280;64701;43.536;1.478;2023-07-16T02:04:39;99747.66;;;19.92;86.32
76011;BME280;64701;43.536;1.478;2023-07-16T02:07:05;99745.47;;;19.89;86.49
76011;BME280;64701;43.536;1.478;2023-07-16T02:09:30;99739.59;;;19.92;85.91
76011;BME280;64701;43.536;1.478;2023-07-16T02:11:55;99740.09;;;19.89;86.01
76011;BME280;64701;43.536;1.478;2023-07-16T02:14:21;99737.31;;;19.84;86.05
76011;BME280;64701;43.536;1.478;2023-07-16T02:16:46;99731.41;;;19.82;86.18
76011;BME280;64701;43.536;1.478;2023-07-16T02:19:11;99742.44;;;19.86;85.34
76011;BME280;64701;43.536;1.478;2023-07-16T02:21:36;99737.06;;;19.86;85.73
76011;BME280;64701;43.536;1.478;2023-07-16T02:24:02;99742.22;;;19.87;85.63
76011;BME280;64701;43.536;1.478;2023-07-16T02:26:27;99734.09;;;19.82;85.76
76011;BME280;64701;43.536;1.478;2023-07-16T02:28:52;99739.47;;;19.82;85.08
76011;BME280;64701;43.536;1.478;2023-07-16T02:31:18;99742.69;;;19.84;84.96
76011;BME280;64701;43.536;1.478;2023-07-16T02:33:43;99745.66;;;19.83;85.40
76011;BME280;64701;43.536;1.478;2023-07-16T02:36:08;99743.53;;;19.68;86.60
76011;BME280;64701;43.536;1.478;2023-07-16T02:38:34;99739.13;;;19.79;85.06
76011;BME280;64701;43.536;1.478;2023-07-16T02:40:59;99744.50;;;19.79;85.33
76011;BME280;64701;43.536;1.478;2023-07-16T02:43:24;99749.56;;;19.75;85.16
76011;BME280;64701;43.536;1.478;2023-07-16T02:45:49;99747.63;;;19.71;85.63
76011;BME280;64701;43.536;1.478;2023-07-16T02:48:15;99759.25;;;19.76;84.79
76011;BME280;64701;43.536;1.478;2023-07-16T02:50:40;99766.50;;;19.76;84.97
76011;BME280;64701;43.536;1.478;2023-07-16T02:53:06;99756.56;;;19.76;84.69
76011;BME280;64701;43.536;1.478;2023-07-16T02:55:31;99770.53;;;19.78;84.40
76011;BME280;64701;43.536;1.478;2023-07-16T02:57:57;99761.34;;;19.74;84.78
76011;BME280;64701;43.536;1.478;2023-07-16T03:00:22;99763.31;;;19.79;84.35
76011;BME280;64701;43.536;1.478;2023-07-16T03:02:48;99762.69;;;19.72;85.22
76011;BME280;64701;43.536;1.478;2023-07-16T03:05:15;99751.94;;;19.72;84.92
76011;BME280;64701;43.536;1.478;2023-07-16T03:07:40;99753.28;;;19.74;84.32
76011;BME280;64701;43.536;1.478;2023-07-16T03:10:06;99755.50;;;19.77;83.86
76011;BME280;64701;43.536;1.478;2023-07-16T03:12:31;99753.38;;;19.79;83.89
76011;BME280;64701;43.536;1.478;2023-07-16T03:14:56;99751.19;;;19.76;84.29
76011;BME280;64701;43.536;1.478;2023-07-16T03:17:22;99753.28;;;19.74;84.57
76011;BME280;64701;43.536;1.478;2023-07-16T03:19:47;99743.53;;;19.68;85.09
76011;BME280;64701;43.536;1.478;2023-07-16T03:22:12;99752.72;;;19.72;84.61
76011;BME280;64701;43.536;1.478;2023-07-16T03:24:38;99757.38;;;19.77;84.09
76011;BME280;64701;43.536;1.478;2023-07-16T03:27:03;99758.75;;;19.79;83.97
76011;BME280;64701;43.536;1.478;2023-07-16T03:29:28;99758.75;;;19.79;83.98
76011;BME280;64701;43.536;1.478;2023-07-16T03:31:54;99763.31;;;19.79;83.97
76011;BME280;64701;43.536;1.478;2023-07-16T03:34:19;99764.03;;;19.74;84.15
76011;BME280;64701;43.536;1.478;2023-07-16T03:36:44;99751.44;;;19.75;84.04
76011;BME280;64701;43.536;1.478;2023-07-16T03:39:09;99758.66;;;19.74;83.73
76011;BME280;64701;43.536;1.478;2023-07-16T03:41:35;99763.00;;;19.75;83.57
76011;BME280;64701;43.536;1.478;2023-07-16T03:44:00;99756.56;;;19.76;83.63
76011;BME280;64701;43.536;1.478;2023-07-16T03:46:25;99756.31;;;19.78;83.82
76011;BME280;64701;43.536;1.478;2023-07-16T03:48:51;99755.25;;;19.79;83.24
76011;BME280;64701;43.536;1.478;2023-07-16T03:51:16;99756.56;;;19.76;83.56
76011;BME280;64701;43.536;1.478;2023-07-16T03:53:42;99757.38;;;19.77;83.53
76011;BME280;64701;43.536;1.478;2023-07-16T03:56:07;99767.31;;;19.76;83.19
76011;BME280;64701;43.536;1.478;2023-07-16T03:58:33;99759.00;;;19.78;83.38
76011;BME280;64701;43.536;1.478;2023-07-16T04:00:58;99765.91;;;19.74;83.89
76011;BME280;64701;43.536;1.478;2023-07-16T04:03:23;99770.22;;;19.75;83.56
76011;BME280;64701;43.536;1.478;2023-07-16T04:05:49;99775.84;;;19.73;83.99
76011;BME280;64701;43.536;1.478;2023-07-16T04:08:14;99772.63;;;19.71;83.99
76011;BME280;64701;43.536;1.478;2023-07-16T04:10:39;99778.69;;;19.67;85.07
76011;BME280;64701;43.536;1.478;2023-07-16T04:13:05;99783.28;;;19.66;84.61
76011;BME280;64701;43.536;1.478;2023-07-16T04:15:30;99780.09;;;19.69;84.35
76011;BME280;64701;43.536;1.478;2023-07-16T04:17:55;99777.41;;;19.69;84.59
76011;BME280;64701;43.536;1.478;2023-07-16T04:20:21;99770.41;;;19.68;84.62
76011;BME280;64701;43.536;1.478;2023-07-16T04:22:46;99779.59;;;19.72;83.99
76011;BME280;64701;43.536;1.478;2023-07-16T04:25:11;99788.16;;;19.69;84.69
76011;BME280;64701;43.536;1.478;2023-07-16T04:27:37;99783.28;;;19.66;85.42
76011;BME280;64701;43.536;1.478;2023-07-16T04:30:02;99790.84;;;19.69;85.11
76011;BME280;64701;43.536;1.478;2023-07-16T04:32:27;99786.19;;;19.65;86.06
76011;BME280;64701;43.536;1.478;2023-07-16T04:34:53;99793.75;;;19.68;85.70
76011;BME280;64701;43.536;1.478;2023-07-16T04:37:18;99789.13;;;19.63;85.83
76011;BME280;64701;43.536;1.478;2023-07-16T04:39:43;99787.50;;;19.62;86.34
76011;BME280;64701;43.536;1.478;2023-07-16T04:42:09;99791.97;;;19.56;87.05
76011;BME280;64701;43.536;1.478;2023-07-16T04:44:34;99794.81;;;19.50;87.37
76011;BME280;64701;43.536;1.478;2023-07-16T04:46:59;99801.91;;;19.56;86.79
76011;BME280;64701;43.536;1.478;2023-07-16T04:49:24;99800.84;;;19.57;86.97
76011;BME280;64701;43.536;1.478;2023-07-16T04:51:50;99798.75;;;19.59;86.86
76011;BME280;64701;43.536;1.478;2023-07-16T04:54:15;99801.91;;;19.56;87.18
76011;BME280;64701;43.536;1.478;2023-07-16T04:56:40;99796.94;;;19.48;87.76
76011;BME280;64701;43.536;1.478;2023-07-16T04:59:05;99793.28;;;19.54;86.90
76011;BME280;64701;43.536;1.478;2023-07-16T05:01:31;99789.03;;;19.58;86.67
76011;BME280;64701;43.536;1.478;2023-07-16T05:03:56;99795.00;;;19.60;86.22
76011;BME280;64701;43.536;1.478;2023-07-16T05:06:21;99789.44;;;19.67;85.84
76011;BME280;64701;43.536;1.478;2023-07-16T05:08:47;99795.72;;;19.72;85.43
76011;BME280;64701;43.536;1.478;2023-07-16T05:11:12;99783.91;;;19.73;85.48
76011;BME280;64701;43.536;1.478;2023-07-16T05:13:37;99789.28;;;19.73;85.89
76011;BME280;64701;43.536;1.478;2023-07-16T05:16:03;99791.41;;;19.71;86.28
76011;BME280;64701;43.536;1.478;2023-07-16T05:18:28;99788.66;;;19.66;86.69
76011;BME280;64701;43.536;1.478;2023-07-16T05:20:53;99788.53;;;19.61;87.28
76011;BME280;64701;43.536;1.478;2023-07-16T05:23:18;99787.03;;;19.65;86.36
76011;BME280;64701;43.536;1.478;2023-07-16T05:25:47;99795.63;;;19.67;86.63
76011;BME280;64701;43.536;1.478;2023-07-16T05:28:13;99796.13;;;19.64;87.44
76011;BME280;64701;43.536;1.478;2023-07-16T05:30:39;99802.63;;;19.68;86.85
76011;BME280;64701;43.536;1.478;2023-07-16T05:33:04;99803.75;;;19.72;86.53
76011;BME280;64701;43.536;1.478;2023-07-16T05:35:29;99804.59;;;19.73;87.15
76011;BME280;64701;43.536;1.478;2023-07-16T05:37:54;99802.78;;;19.78;86.13
76011;BME280;64701;43.536;1.478;2023-07-16T05:40:20;99804.75;;;19.83;85.81
76011;BME280;64701;43.536;1.478;2023-07-16T05:42:45;99799.69;;;19.86;85.84
76011;BME280;64701;43.536;1.478;2023-07-16T05:45:10;99807.84;;;19.91;85.33
76011;BME280;64701;43.536;1.478;2023-07-16T05:47:35;99803.03;;;19.93;85.31
76011;BME280;64701;43.536;1.478;2023-07-16T05:50:01;99803.63;;;19.95;85.29
76011;BME280;64701;43.536;1.478;2023-07-16T05:52:26;99806.38;;;20.01;84.48
76011;BME280;64701;43.536;1.478;2023-07-16T05:54:52;99801.00;;;20.01;85.05
76011;BME280;64701;43.536;1.478;2023-07-16T05:57:17;99802.72;;;20.07;84.62
76011;BME280;64701;43.536;1.478;2023-07-16T05:59:42;99804.59;;;20.06;84.78
76011;BME280;64701;43.536;1.478;2023-07-16T06:02:07;99809.22;;;20.11;84.72
76011;BME280;64701;43.536;1.478;2023-07-16T06:04:33;99799.22;;;20.06;85.55
76011;BME280;64701;43.536;1.478;2023-07-16T06:06:58;99796.28;;;20.08;85.04
76011;BME280;64701;43.536;1.478;2023-07-16T06:09:23;99802.03;;;20.16;84.24
76011;BME280;64701;43.536;1.478;2023-07-16T06:11:49;99804.56;;;20.23;84.09
76011;BME280;64701;43.536;1.478;2023-07-16T06:14:15;99799.47;;;20.26;83.79
76011;BME280;64701;43.536;1.478;2023-07-16T06:16:40;99796.56;;;20.28;84.21
76011;BME280;64701;43.536;1.478;2023-07-16T06:19:05;99786.13;;;20.31;84.34
76011;BME280;64701;43.536;1.478;2023-07-16T06:21:31;99793.78;;;20.40;83.67
76011;BME280;64701;43.536;1.478;2023-07-16T06:23:56;99803.53;;;20.46;82.74
76011;BME280;64701;43.536;1.478;2023-07-16T06:26:21;99795.53;;;20.51;82.17
76011;BME280;64701;43.536;1.478;2023-07-16T06:28:47;99792.59;;;20.52;83.14
76011;BME280;64701;43.536;1.478;2023-07-16T06:31:18;99794.81;;;20.55;83.61
76011;BME280;64701;43.536;1.478;2023-07-16T06:33:43;99794.34;;;20.63;83.02
76011;BME280;64701;43.536;1.478;2023-07-16T06:36:09;99794.16;;;20.70;82.49
76011;BME280;64701;43.536;1.478;2023-07-16T06:38:34;99784.84;;;20.77;82.26
76011;BME280;64701;43.536;1.478;2023-07-16T06:40:59;99791.66;;;20.85;81.34
76011;BME280;64701;43.536;1.478;2023-07-16T06:43:25;99794.91;;;20.87;81.15
76011;BME280;64701;43.536;1.478;2023-07-16T06:45:50;99794.22;;;20.97;80.94
76011;BME280;64701;43.536;1.478;2023-07-16T06:48:18;99799.13;;;21.05;80.22
76011;BME280;64701;43.536;1.478;2023-07-16T06:50:43;99795.44;;;21.11;80.64
76011;BME280;64701;43.536;1.478;2023-07-16T06:53:08;99796.09;;;21.18;79.84
76011;BME280;64701;43.536;1.478;2023-07-16T06:55:34;99793.63;;;21.16;74.24
76011;BME280;64701;43.536;1.478;2023-07-16T06:58:00;99783.75;;;21.27;77.30
76011;BME280;64701;43.536;1.478;2023-07-16T07:00:25;99783.31;;;21.35;75.83
76011;BME280;64701;43.536;1.478;2023-07-16T07:02:50;99795.00;;;21.46;75.63
76011;BME280;64701;43.536;1.478;2023-07-16T07:05:16;99784.56;;;21.54;74.20
76011;BME280;64701;43.536;1.478;2023-07-16T07:07:41;99787.59;;;21.63;74.27
76011;BME280;64701;43.536;1.478;2023-07-16T07:10:07;99786.28;;;21.66;72.98
76011;BME280;64701;43.536;1.478;2023-07-16T07:12:32;99790.34;;;21.68;70.09
76011;BME280;64701;43.536;1.478;2023-07-16T07:15:02;99797.13;;;21.76;71.20
76011;BME280;64701;43.536;1.478;2023-07-16T07:17:27;99793.16;;;21.83;72.51
76011;BME280;64701;43.536;1.478;2023-07-16T07:19:53;99798.31;;;21.90;71.24
76011;BME280;64701;43.536;1.478;2023-07-16T07:22:18;99808.56;;;21.93;70.73
76011;BME280;64701;43.536;1.478;2023-07-16T07:24:43;99800.03;;;21.96;71.17
76011;BME280;64701;43.536;1.478;2023-07-16T07:27:09;99796.28;;;22.02;70.64
76011;BME280;64701;43.536;1.478;2023-07-16T07:29:34;99789.00;;;22.03;68.82
76011;BME280;64701;43.536;1.478;2023-07-16T07:32:00;99790.34;;;22.05;69.46
76011;BME280;64701;43.536;1.478;2023-07-16T07:34:25;99783.66;;;22.08;70.06
76011;BME280;64701;43.536;1.478;2023-07-16T07:36:50;99787.66;;;22.05;69.04
76011;BME280;64701;43.536;1.478;2023-07-16T07:39:15;99787.66;;;22.05;69.29
76011;BME280;64701;43.536;1.478;2023-07-16T07:41:41;99784.97;;;22.05;69.78
76011;BME280;64701;43.536;1.478;2023-07-16T07:44:07;99776.34;;;22.03;68.12
76011;BME280;64701;43.536;1.478;2023-07-16T07:46:32;99780.59;;;21.99;69.66
76011;BME280;64701;43.536;1.478;2023-07-16T07:48:57;99777.66;;;22.01;69.68
76011;BME280;64701;43.536;1.478;2023-07-16T07:51:22;99781.72;;;21.98;69.27
76011;BME280;64701;43.536;1.478;2023-07-16T07:53:48;99773.09;;;22.01;68.64
76011;BME280;64701;43.536;1.478;2023-07-16T07:56:13;99763.94;;;22.02;69.22
76011;BME280;64701;43.536;1.478;2023-07-16T07:58:39;99766.88;;;22.01;66.13
76011;BME280;64701;43.536;1.478;2023-07-16T08:01:05;99759.63;;;22.06;68.50
76011;BME280;64701;43.536;1.478;2023-07-16T08:03:31;99746.97;;;22.12;68.04
76011;BME280;64701;43.536;1.478;2023-07-16T08:05:56;99754.00;;;22.13;67.79
76011;BME280;64701;43.536;1.478;2023-07-16T08:08:21;99758.06;;;22.15;67.38
76011;BME280;64701;43.536;1.478;2023-07-16T08:10:46;99757.53;;;22.18;67.05
76011;BME280;64701;43.536;1.478;2023-07-16T08:13:12;99760.22;;;22.13;65.08
76011;BME280;64701;43.536;1.478;2023-07-16T08:15:38;99764.56;;;22.19;67.34
76011;BME280;64701;43.536;1.478;2023-07-16T08:18:03;99760.25;;;22.23;66.45
76011;BME280;64701;43.536;1.478;2023-07-16T08:20:28;99767.00;;;22.21;64.96
76011;BME280;64701;43.536;1.478;2023-07-16T08:22:53;99771.03;;;22.23;66.28
76011;BME280;64701;43.536;1.478;2023-07-16T08:25:19;99761.34;;;22.22;64.13
76011;BME280;64701;43.536;1.478;2023-07-16T08:27:44;99758.91;;;22.21;64.79
76011;BME280;64701;43.536;1.478;2023-07-16T08:30:09;99757.06;;;22.26;63.15
76011;BME280;64701;43.536;1.478;2023-07-16T08:32:34;99745.47;;;22.31;62.37
76011;BME280;64701;43.536;1.478;2023-07-16T08:35:00;99752.75;;;22.35;63.07
76011;BME280;64701;43.536;1.478;2023-07-16T08:37:25;99743.59;;;22.36;63.27
76011;BME280;64701;43.536;1.478;2023-07-16T08:39:53;99749.81;;;22.42;63.28
76011;BME280;64701;43.536;1.478;2023-07-16T08:42:18;99734.78;;;22.51;64.25
76011;BME280;64701;43.536;1.478;2023-07-16T08:44:44;99731.25;;;22.46;62.66
76011;BME280;64701;43.536;1.478;2023-07-16T08:47:09;99726.13;;;22.49;61.71
76011;BME280;64701;43.536;1.478;2023-07-16T08:49:35;99727.50;;;22.57;62.08
76011;BME280;64701;43.536;1.478;2023-07-16T08:52:01;99734.47;;;22.48;60.33
76011;BME280;64701;43.536;1.478;2023-07-16T08:54:27;99736.13;;;22.54;62.24
76011;BME280;64701;43.536;1.478;2023-07-16T08:56:52;99728.59;;;22.61;63.03
76011;BME280;64701;43.536;1.478;2023-07-16T08:59:18;99725.91;;;22.66;61.52
76011;BME280;64701;43.536;1.478;2023-07-16T09:01:43;99732.34;;;22.60;57.82
76011;BME280;64701;43.536;1.478;2023-07-16T09:04:08;99727.50;;;22.57;58.54
76011;BME280;64701;43.536;1.478;2023-07-16T09:06:33;99729.66;;;22.65;61.13
76011;BME280;64701;43.536;1.478;2023-07-16T09:08:59;99729.41;;;22.61;59.56
76011;BME280;64701;43.536;1.478;2023-07-16T09:11:24;99732.66;;;22.63;59.67
76011;BME280;64701;43.536;1.478;2023-07-16T09:13:50;99734.34;;;22.74;61.10
76011;BME280;64701;43.536;1.478;2023-07-16T09:16:17;99732.72;;;22.84;61.20
76011;BME280;64701;43.536;1.478;2023-07-16T09:18:43;99729.22;;;22.88;58.92
76011;BME280;64701;43.536;1.478;2023-07-16T09:21:08;99731.41;;;22.96;60.02
76011;BME280;64701;43.536;1.478;2023-07-16T09:23:34;99730.06;;;22.99;59.38
76011;BME280;64701;43.536;1.478;2023-07-16T09:25:59;99736.28;;;23.09;61.92
76011;BME280;64701;43.536;1.478;2023-07-16T09:28:25;99733.59;;;23.14;60.23
76011;BME280;64701;43.536;1.478;2023-07-16T09:30:51;99734.16;;;23.22;60.28
76011;BME280;64701;43.536;1.478;2023-07-16T09:33:17;99745.50;;;23.29;58.14
76011;BME280;64701;43.536;1.478;2023-07-16T09:35:42;99740.63;;;23.36;58.24
76011;BME280;64701;43.536;1.478;2023-07-16T09:38:08;99743.59;;;23.44;58.63
76011;BME280;64701;43.536;1.478;2023-07-16T09:40:37;99745.53;;;23.49;59.00
76011;BME280;64701;43.536;1.478;2023-07-16T09:43:03;99732.56;;;23.56;57.56
76011;BME280;64701;43.536;1.478;2023-07-16T09:45:29;99732.81;;;23.59;56.92
76011;BME280;64701;43.536;1.478;2023-07-16T09:47:54;99734.16;;;23.67;54.98
76011;BME280;64701;43.536;1.478;2023-07-16T09:50:20;99736.59;;;23.69;53.88
76011;BME280;64701;43.536;1.478;2023-07-16T09:52:47;99733.63;;;23.75;55.60
76011;BME280;64701;43.536;1.478;2023-07-16T09:55:13;99726.06;;;23.77;53.20
76011;BME280;64701;43.536;1.478;2023-07-16T09:57:41;99724.72;;;23.70;52.39
76011;BME280;64701;43.536;1.478;2023-07-16T10:00:08;99728.22;;;23.65;52.61
76011;BME280;64701;43.536;1.478;2023-07-16T10:02:40;99732.00;;;23.54;51.33
76011;BME280;64701;43.536;1.478;2023-07-16T10:05:19;99728.22;;;23.55;52.63
76011;BME280;64701;43.536;1.478;2023-07-16T10:07:53;99736.59;;;23.64;54.00
76011;BME280;64701;43.536;1.478;2023-07-16T10:10:19;99717.66;;;23.69;51.07
76011;BME280;64701;43.536;1.478;2023-07-16T10:13:03;99724.97;;;23.83;52.17
76011;BME280;64701;43.536;1.478;2023-07-16T10:15:28;99720.03;;;23.95;54.34
76011;BME280;64701;43.536;1.478;2023-07-16T10:17:54;99710.28;;;24.05;52.13
76011;BME280;64701;43.536;1.478;2023-07-16T10:20:30;99724.03;;;24.13;53.54
76011;BME280;64701;43.536;1.478;2023-07-16T10:22:55;99707.28;;;24.16;52.91
76011;BME280;64701;43.536;1.478;2023-07-16T10:27:46;99706.47;;;24.31;51.32
76011;BME280;64701;43.536;1.478;2023-07-16T10:30:12;99700.47;;;24.34;51.69
76011;BME280;64701;43.536;1.478;2023-07-16T10:32:38;99699.59;;;24.49;53.40
76011;BME280;64701;43.536;1.478;2023-07-16T10:35:04;99706.59;;;24.60;53.31
76011;BME280;64701;43.536;1.478;2023-07-16T10:37:29;99704.66;;;24.65;50.72
76011;BME280;64701;43.536;1.478;2023-07-16T10:39:56;99707.03;;;24.77;51.08
76011;BME280;64701;43.536;1.478;2023-07-16T10:42:22;99705.91;;;24.83;48.78
76011;BME280;64701;43.536;1.478;2023-07-16T10:44:48;99701.81;;;24.91;48.95
76011;BME280;64701;43.536;1.478;2023-07-16T10:47:18;99706.34;;;25.00;48.71
76011;BME280;64701;43.536;1.478;2023-07-16T10:49:45;99708.47;;;25.08;47.98
76011;BME280;64701;43.536;1.478;2023-07-16T10:52:10;99712.47;;;25.16;45.53
76011;BME280;64701;43.536;1.478;2023-07-16T10:54:35;99703.47;;;25.26;46.22
76011;BME280;64701;43.536;1.478;2023-07-16T10:57:01;99707.75;;;25.32;46.67
76011;BME280;64701;43.536;1.478;2023-07-16T10:59:26;99708.47;;;25.42;47.04
76011;BME280;64701;43.536;1.478;2023-07-16T11:01:51;99706.75;;;25.51;45.87
76011;BME280;64701;43.536;1.478;2023-07-16T11:04:16;99704.56;;;25.53;43.10
76011;BME280;64701;43.536;1.478;2023-07-16T11:06:42;99703.47;;;25.59;45.14
76011;BME280;64701;43.536;1.478;2023-07-16T11:09:10;99697.75;;;25.61;43.24
76011;BME280;64701;43.536;1.478;2023-07-16T11:11:35;99699.56;;;25.71;46.17
76011;BME280;64701;43.536;1.478;2023-07-16T11:14:04;99704.59;;;25.82;46.10
76011;BME280;64701;43.536;1.478;2023-07-16T11:16:33;99707.44;;;25.96;47.37
76011;BME280;64701;43.536;1.478;2023-07-16T11:19:00;99700.19;;;26.10;46.78
76011;BME280;64701;43.536;1.478;2023-07-16T11:21:25;99698.53;;;26.14;42.46
76011;BME280;64701;43.536;1.478;2023-07-16T11:23:51;99697.13;;;26.17;42.70
76011;BME280;64701;43.536;1.478;2023-07-16T11:26:16;99705.53;;;26.20;42.26
76011;BME280;64701;43.536;1.478;2023-07-16T11:28:41;99694.94;;;26.19;40.81
76011;BME280;64701;43.536;1.478;2023-07-16T11:31:13;99692.44;;;26.27;41.33
76011;BME280;64701;43.536;1.478;2023-07-16T11:33:41;99698.38;;;26.29;41.73
76011;BME280;64701;43.536;1.478;2023-07-16T11:36:06;99675.22;;;26.37;41.56
76011;BME280;64701;43.536;1.478;2023-07-16T11:38:35;99675.22;;;26.37;39.53
76011;BME280;64701;43.536;1.478;2023-07-16T11:41:01;99680.03;;;26.40;42.17
76011;BME280;64701;43.536;1.478;2023-07-16T11:43:26;99669.63;;;26.47;39.29
76011;BME280;64701;43.536;1.478;2023-07-16T11:45:51;99671.53;;;26.47;41.57
76011;BME280;64701;43.536;1.478;2023-07-16T11:48:16;99676.31;;;26.55;39.48
76011;BME280;64701;43.536;1.478;2023-07-16T11:50:42;99665.31;;;26.65;40.90
76011;BME280;64701;43.536;1.478;2023-07-16T11:53:07;99651.06;;;26.73;41.24
76011;BME280;64701;43.536;1.478;2023-07-16T11:55:32;99649.28;;;26.82;41.56
76011;BME280;64701;43.536;1.478;2023-07-16T11:57:58;99654.53;;;26.97;43.24
76011;BME280;64701;43.536;1.478;2023-07-16T12:00:24;99645.09;;;27.08;40.83
76011;BME280;64701;43.536;1.478;2023-07-16T12:02:50;99642.22;;;27.18;41.96
76011;BME280;64701;43.536;1.478;2023-07-16T12:05:18;99651.09;;;27.24;41.84
76011;BME280;64701;43.536;1.478;2023-07-16T12:07:44;99645.69;;;27.38;41.64
76011;BME280;64701;43.536;1.478;2023-07-16T12:10:09;99652.94;;;27.42;38.50
76011;BME280;64701;43.536;1.478;2023-07-16T12:12:34;99637.84;;;27.50;39.97
76011;BME280;64701;43.536;1.478;2023-07-16T12:15:03;99643.13;;;27.60;41.29
76011;BME280;64701;43.536;1.478;2023-07-16T12:17:28;99646.06;;;27.64;39.83
76011;BME280;64701;43.536;1.478;2023-07-16T12:19:53;99643.34;;;27.77;41.43
76011;BME280;64701;43.536;1.478;2023-07-16T12:22:18;99644.16;;;27.78;37.56
76011;BME280;64701;43.536;1.478;2023-07-16T12:24:44;99636.69;;;27.83;38.35
76011;BME280;64701;43.536;1.478;2023-07-16T12:27:10;99637.41;;;27.75;39.92
76011;BME280;64701;43.536;1.478;2023-07-16T12:29:35;99637.31;;;27.80;40.50
76011;BME280;64701;43.536;1.478;2023-07-16T12:32:00;99630.03;;;27.89;37.50
76011;BME280;64701;43.536;1.478;2023-07-16T12:34:25;99633.09;;;27.88;38.97
76011;BME280;64701;43.536;1.478;2023-07-16T12:36:51;99625.41;;;27.76;39.97
76011;BME280;64701;43.536;1.478;2023-07-16T12:39:16;99630.84;;;27.90;39.79
76011;BME280;64701;43.536;1.478;2023-07-16T12:41:42;99626.22;;;28.04;40.27
76011;BME280;64701;43.536;1.478;2023-07-16T12:44:08;99619.16;;;28.17;38.19
76011;BME280;64701;43.536;1.478;2023-07-16T12:46:33;99617.22;;;28.31;39.55
76011;BME280;64701;43.536;1.478;2023-07-16T12:48:58;99621.06;;;28.30;38.89
76011;BME280;64701;43.536;1.478;2023-07-16T12:51:23;99609.31;;;28.43;38.12
76011;BME280;64701;43.536;1.478;2023-07-16T12:53:49;99617.06;;;28.50;40.66
76011;BME280;64701;43.536;1.478;2023-07-16T12:56:14;99612.81;;;28.57;39.69
76011;BME280;64701;43.536;1.478;2023-07-16T12:58:39;99612.16;;;28.74;40.04
76011;BME280;64701;43.536;1.478;2023-07-16T13:01:04;99609.72;;;28.72;37.01
76011;BME280;64701;43.536;1.478;2023-07-16T13:03:30;99613.41;;;28.90;40.82